Arlington, Colorado
Current Conditions -  °F | °C
As of 8:53 PM on Tuesday 21 Oct 2014 (Local Time) from KLHX Reporting Station
Clear Clear  
Wind Chill: 18°   Ceiling: Unl
Heat Index: 18°   Visibility: 10mi
Dew Point:   Wind: 12mph
Humidity: 50%   Direction: 190°S
Pressure: 29.93"   Gusts: NA
Location:  38.34°N, 103.34°W
Report Text: KLHX 220253Z AUTO 19010KT 10SM CLR 18/08 A2993 RMK AO2 SLP097 T01830078 53007
Loading
Personal Weather Stations






























Interactive Weather Map New forecast layout! Learn more

10-Day Weather Forecast

Advertisements
Track Severe Weather on mobile